sensor_id;sensor_type;location;lat;lon;timestamp;P1;durP1;ratioP1;P2;durP2;ratioP2
73869;SDS011;64924;42.140;24.762;2023-06-04T00:01:29;7.97;;;4.10;;
73869;SDS011;64924;42.140;24.762;2023-06-04T00:03:54;7.32;;;3.90;;
73869;SDS011;64924;42.140;24.762;2023-06-04T00:06:19;5.40;;;3.38;;
73869;SDS011;64924;42.140;24.762;2023-06-04T00:08:45;5.80;;;3.97;;
73869;SDS011;64924;42.140;24.762;2023-06-04T00:11:10;7.43;;;4.13;;
73869;SDS011;64924;42.140;24.762;2023-06-04T00:13:36;8.57;;;4.40;;
73869;SDS011;64924;42.140;24.762;2023-06-04T00:16:01;6.47;;;3.80;;
73869;SDS011;64924;42.140;24.762;2023-06-04T00:18:27;8.65;;;4.28;;
73869;SDS011;64924;42.140;24.762;2023-06-04T00:20:52;10.18;;;4.05;;
73869;SDS011;64924;42.140;24.762;2023-06-04T00:23:18;5.97;;;3.80;;
73869;SDS011;64924;42.140;24.762;2023-06-04T00:25:43;7.93;;;4.03;;
73869;SDS011;64924;42.140;24.762;2023-06-04T00:28:09;7.18;;;4.20;;
73869;SDS011;64924;42.140;24.762;2023-06-04T00:30:34;6.53;;;4.40;;
73869;SDS011;64924;42.140;24.762;2023-06-04T00:33:00;10.88;;;5.55;;
73869;SDS011;64924;42.140;24.762;2023-06-04T00:35:26;5.65;;;4.13;;
73869;SDS011;64924;42.140;24.762;2023-06-04T00:37:51;7.03;;;4.75;;
73869;SDS011;64924;42.140;24.762;2023-06-04T00:40:17;10.10;;;4.72;;
73869;SDS011;64924;42.140;24.762;2023-06-04T00:42:43;11.18;;;4.82;;
73869;SDS011;64924;42.140;24.762;2023-06-04T00:45:10;7.55;;;4.68;;
73869;SDS011;64924;42.140;24.762;2023-06-04T00:47:36;8.45;;;4.65;;
73869;SDS011;64924;42.140;24.762;2023-06-04T00:50:01;6.97;;;4.40;;
73869;SDS011;64924;42.140;24.762;2023-06-04T00:52:27;7.35;;;4.55;;
73869;SDS011;64924;42.140;24.762;2023-06-04T00:54:53;5.38;;;4.22;;
73869;SDS011;64924;42.140;24.762;2023-06-04T00:57:21;7.40;;;4.90;;
73869;SDS011;64924;42.140;24.762;2023-06-04T00:59:47;9.32;;;4.95;;
73869;SDS011;64924;42.140;24.762;2023-06-04T01:02:16;6.82;;;5.07;;
73869;SDS011;64924;42.140;24.762;2023-06-04T01:04:54;8.80;;;5.18;;
73869;SDS011;64924;42.140;24.762;2023-06-04T01:07:26;12.23;;;4.32;;
73869;SDS011;64924;42.140;24.762;2023-06-04T01:09:55;8.48;;;4.75;;
73869;SDS011;64924;42.140;24.762;2023-06-04T01:12:21;6.95;;;4.35;;
73869;SDS011;64924;42.140;24.762;2023-06-04T01:14:47;6.97;;;4.80;;
73869;SDS011;64924;42.140;24.762;2023-06-04T01:17:18;10.05;;;5.35;;
73869;SDS011;64924;42.140;24.762;2023-06-04T01:27:59;6.07;;;4.55;;
73869;SDS011;64924;42.140;24.762;2023-06-04T01:30:29;11.00;;;4.72;;
73869;SDS011;64924;42.140;24.762;2023-06-04T01:33:00;8.57;;;4.85;;
73869;SDS011;64924;42.140;24.762;2023-06-04T01:35:27;9.55;;;4.47;;
73869;SDS011;64924;42.140;24.762;2023-06-04T01:37:54;10.68;;;4.50;;
73869;SDS011;64924;42.140;24.762;2023-06-04T01:40:20;7.78;;;4.70;;
73869;SDS011;64924;42.140;24.762;2023-06-04T01:42:46;9.93;;;4.97;;
73869;SDS011;64924;42.140;24.762;2023-06-04T01:45:11;7.38;;;4.43;;
73869;SDS011;64924;42.140;24.762;2023-06-04T01:47:37;8.57;;;4.45;;
73869;SDS011;64924;42.140;24.762;2023-06-04T01:50:04;9.48;;;4.72;;
73869;SDS011;64924;42.140;24.762;2023-06-04T01:52:34;6.93;;;4.30;;
73869;SDS011;64924;42.140;24.762;2023-06-04T01:55:02;8.75;;;5.13;;
73869;SDS011;64924;42.140;24.762;2023-06-04T01:57:32;6.90;;;4.97;;
73869;SDS011;64924;42.140;24.762;2023-06-04T01:59:58;9.40;;;4.85;;
73869;SDS011;64924;42.140;24.762;2023-06-04T02:02:24;8.52;;;5.93;;
73869;SDS011;64924;42.140;24.762;2023-06-04T02:04:50;10.93;;;6.30;;
73869;SDS011;64924;42.140;24.762;2023-06-04T02:07:18;7.22;;;5.07;;
73869;SDS011;64924;42.140;24.762;2023-06-04T02:09:48;8.77;;;5.47;;
73869;SDS011;64924;42.140;24.762;2023-06-04T02:12:14;6.03;;;5.03;;
73869;SDS011;64924;42.140;24.762;2023-06-04T02:14:40;6.97;;;5.15;;
73869;SDS011;64924;42.140;24.762;2023-06-04T02:17:07;8.38;;;4.93;;
73869;SDS011;64924;42.140;24.762;2023-06-04T02:19:38;7.35;;;4.72;;
73869;SDS011;64924;42.140;24.762;2023-06-04T02:22:05;7.30;;;4.90;;
73869;SDS011;64924;42.140;24.762;2023-06-04T02:24:31;8.90;;;5.57;;
73869;SDS011;64924;42.140;24.762;2023-06-04T02:26:57;8.40;;;4.70;;
73869;SDS011;64924;42.140;24.762;2023-06-04T02:29:22;11.02;;;5.03;;
73869;SDS011;64924;42.140;24.762;2023-06-04T02:31:48;9.10;;;4.45;;
73869;SDS011;64924;42.140;24.762;2023-06-04T02:34:13;8.43;;;5.13;;
73869;SDS011;64924;42.140;24.762;2023-06-04T02:36:39;12.73;;;5.18;;
73869;SDS011;64924;42.140;24.762;2023-06-04T02:39:04;10.75;;;5.25;;
73869;SDS011;64924;42.140;24.762;2023-06-04T02:41:30;10.25;;;5.15;;
73869;SDS011;64924;42.140;24.762;2023-06-04T02:43:56;7.25;;;5.00;;
73869;SDS011;64924;42.140;24.762;2023-06-04T02:46:21;11.93;;;5.07;;
73869;SDS011;64924;42.140;24.762;2023-06-04T02:48:47;7.63;;;5.53;;
73869;SDS011;64924;42.140;24.762;2023-06-04T02:51:12;9.20;;;4.93;;
73869;SDS011;64924;42.140;24.762;2023-06-04T02:53:38;8.68;;;4.82;;
73869;SDS011;64924;42.140;24.762;2023-06-04T02:56:03;6.18;;;4.72;;
73869;SDS011;64924;42.140;24.762;2023-06-04T02:58:29;7.32;;;4.95;;
73869;SDS011;64924;42.140;24.762;2023-06-04T03:00:56;9.23;;;4.97;;
73869;SDS011;64924;42.140;24.762;2023-06-04T03:03:21;11.18;;;5.10;;
73869;SDS011;64924;42.140;24.762;2023-06-04T03:05:47;10.05;;;5.18;;
73869;SDS011;64924;42.140;24.762;2023-06-04T03:08:13;10.38;;;5.15;;
73869;SDS011;64924;42.140;24.762;2023-06-04T03:10:38;12.27;;;4.93;;
73869;SDS011;64924;42.140;24.762;2023-06-04T03:13:04;7.75;;;4.70;;
73869;SDS011;64924;42.140;24.762;2023-06-04T03:15:29;9.98;;;5.60;;
73869;SDS011;64924;42.140;24.762;2023-06-04T03:17:55;6.18;;;4.65;;
73869;SDS011;64924;42.140;24.762;2023-06-04T03:20:22;10.45;;;5.00;;
73869;SDS011;64924;42.140;24.762;2023-06-04T03:22:49;8.88;;;4.93;;
73869;SDS011;64924;42.140;24.762;2023-06-04T03:25:15;9.75;;;5.22;;
73869;SDS011;64924;42.140;24.762;2023-06-04T03:27:41;9.02;;;5.35;;
73869;SDS011;64924;42.140;24.762;2023-06-04T03:30:07;9.77;;;4.93;;
73869;SDS011;64924;42.140;24.762;2023-06-04T03:32:33;7.70;;;4.80;;
73869;SDS011;64924;42.140;24.762;2023-06-04T03:34:59;8.88;;;4.70;;
73869;SDS011;64924;42.140;24.762;2023-06-04T03:37:25;6.68;;;5.28;;
73869;SDS011;64924;42.140;24.762;2023-06-04T03:39:51;6.35;;;4.20;;
73869;SDS011;64924;42.140;24.762;2023-06-04T03:42:17;7.10;;;4.85;;
73869;SDS011;64924;42.140;24.762;2023-06-04T03:44:43;9.75;;;4.70;;
73869;SDS011;64924;42.140;24.762;2023-06-04T03:47:09;9.73;;;5.55;;
73869;SDS011;64924;42.140;24.762;2023-06-04T03:49:34;8.18;;;4.53;;
73869;SDS011;64924;42.140;24.762;2023-06-04T03:52:00;9.65;;;5.25;;
73869;SDS011;64924;42.140;24.762;2023-06-04T03:54:25;7.80;;;4.65;;
73869;SDS011;64924;42.140;24.762;2023-06-04T03:56:51;12.32;;;5.68;;
73869;SDS011;64924;42.140;24.762;2023-06-04T03:59:16;11.43;;;5.32;;
73869;SDS011;64924;42.140;24.762;2023-06-04T04:01:42;7.82;;;4.68;;
73869;SDS011;64924;42.140;24.762;2023-06-04T04:04:08;7.25;;;5.13;;
73869;SDS011;64924;42.140;24.762;2023-06-04T04:06:34;12.82;;;5.13;;
73869;SDS011;64924;42.140;24.762;2023-06-04T04:09:00;9.45;;;5.22;;
73869;SDS011;64924;42.140;24.762;2023-06-04T04:11:26;8.00;;;5.72;;
73869;SDS011;64924;42.140;24.762;2023-06-04T04:13:51;7.47;;;6.30;;
73869;SDS011;64924;42.140;24.762;2023-06-04T04:16:16;7.32;;;4.93;;
73869;SDS011;64924;42.140;24.762;2023-06-04T04:18:42;8.10;;;5.55;;
73869;SDS011;64924;42.140;24.762;2023-06-04T04:21:09;7.40;;;5.03;;
73869;SDS011;64924;42.140;24.762;2023-06-04T04:23:37;14.75;;;6.00;;
73869;SDS011;64924;42.140;24.762;2023-06-04T04:26:05;8.90;;;5.55;;
73869;SDS011;64924;42.140;24.762;2023-06-04T04:28:31;8.90;;;5.63;;
73869;SDS011;64924;42.140;24.762;2023-06-04T04:30:57;9.20;;;4.88;;
73869;SDS011;64924;42.140;24.762;2023-06-04T04:33:27;7.22;;;5.45;;
73869;SDS011;64924;42.140;24.762;2023-06-04T04:35:57;12.40;;;6.20;;
73869;SDS011;64924;42.140;24.762;2023-06-04T04:38:24;8.70;;;5.57;;
73869;SDS011;64924;42.140;24.762;2023-06-04T04:40:50;9.68;;;5.50;;
73869;SDS011;64924;42.140;24.762;2023-06-04T04:43:38;6.45;;;4.85;;
73869;SDS011;64924;42.140;24.762;2023-06-04T04:46:05;9.40;;;4.53;;
73869;SDS011;64924;42.140;24.762;2023-06-04T04:48:31;12.20;;;5.13;;
73869;SDS011;64924;42.140;24.762;2023-06-04T04:50:56;7.65;;;4.65;;
73869;SDS011;64924;42.140;24.762;2023-06-04T04:53:22;7.13;;;5.30;;
73869;SDS011;64924;42.140;24.762;2023-06-04T04:55:48;8.95;;;5.22;;
73869;SDS011;64924;42.140;24.762;2023-06-04T04:58:14;8.25;;;4.82;;
73869;SDS011;64924;42.140;24.762;2023-06-04T05:00:40;9.82;;;5.10;;
73869;SDS011;64924;42.140;24.762;2023-06-04T05:03:05;11.02;;;5.85;;
73869;SDS011;64924;42.140;24.762;2023-06-04T05:05:31;9.32;;;5.38;;
73869;SDS011;64924;42.140;24.762;2023-06-04T05:07:58;8.07;;;4.97;;
73869;SDS011;64924;42.140;24.762;2023-06-04T05:10:23;6.95;;;4.38;;
73869;SDS011;64924;42.140;24.762;2023-06-04T05:12:52;8.20;;;5.30;;
73869;SDS011;64924;42.140;24.762;2023-06-04T05:15:19;9.25;;;5.22;;
73869;SDS011;64924;42.140;24.762;2023-06-04T05:17:45;7.82;;;5.10;;
73869;SDS011;64924;42.140;24.762;2023-06-04T05:20:12;7.43;;;5.35;;
73869;SDS011;64924;42.140;24.762;2023-06-04T05:22:38;6.50;;;4.55;;
73869;SDS011;64924;42.140;24.762;2023-06-04T05:25:04;7.35;;;4.85;;
73869;SDS011;64924;42.140;24.762;2023-06-04T05:27:31;9.95;;;5.00;;
73869;SDS011;64924;42.140;24.762;2023-06-04T05:29:57;11.23;;;5.97;;
73869;SDS011;64924;42.140;24.762;2023-06-04T05:32:23;8.95;;;5.63;;
73869;SDS011;64924;42.140;24.762;2023-06-04T05:34:49;7.53;;;5.85;;
73869;SDS011;64924;42.140;24.762;2023-06-04T05:37:14;10.93;;;5.78;;
73869;SDS011;64924;42.140;24.762;2023-06-04T05:39:43;9.57;;;5.72;;
73869;SDS011;64924;42.140;24.762;2023-06-04T05:42:08;10.50;;;6.20;;
73869;SDS011;64924;42.140;24.762;2023-06-04T05:44:34;10.27;;;5.40;;
73869;SDS011;64924;42.140;24.762;2023-06-04T05:47:00;9.38;;;5.80;;
73869;SDS011;64924;42.140;24.762;2023-06-04T05:49:25;9.02;;;5.60;;
73869;SDS011;64924;42.140;24.762;2023-06-04T05:51:51;9.27;;;5.95;;
73869;SDS011;64924;42.140;24.762;2023-06-04T05:54:16;10.43;;;6.40;;
73869;SDS011;64924;42.140;24.762;2023-06-04T05:56:42;8.77;;;5.50;;
73869;SDS011;64924;42.140;24.762;2023-06-04T05:59:07;10.68;;;6.07;;
73869;SDS011;64924;42.140;24.762;2023-06-04T06:01:33;8.40;;;5.40;;
73869;SDS011;64924;42.140;24.762;2023-06-04T06:03:59;11.00;;;5.93;;
73869;SDS011;64924;42.140;24.762;2023-06-04T06:06:25;10.18;;;6.03;;
73869;SDS011;64924;42.140;24.762;2023-06-04T06:08:51;9.65;;;6.00;;
73869;SDS011;64924;42.140;24.762;2023-06-04T06:11:17;10.27;;;6.20;;
73869;SDS011;64924;42.140;24.762;2023-06-04T06:13:43;17.48;;;7.97;;
73869;SDS011;64924;42.140;24.762;2023-06-04T06:16:09;15.38;;;6.53;;
73869;SDS011;64924;42.140;24.762;2023-06-04T06:18:34;9.23;;;6.20;;
73869;SDS011;64924;42.140;24.762;2023-06-04T06:21:00;10.82;;;6.47;;
73869;SDS011;64924;42.140;24.762;2023-06-04T06:23:25;9.38;;;6.20;;
73869;SDS011;64924;42.140;24.762;2023-06-04T06:25:51;9.10;;;5.97;;
73869;SDS011;64924;42.140;24.762;2023-06-04T06:28:17;15.23;;;6.18;;
73869;SDS011;64924;42.140;24.762;2023-06-04T06:30:43;9.52;;;6.03;;
73869;SDS011;64924;42.140;24.762;2023-06-04T06:33:09;9.35;;;5.93;;
73869;SDS011;64924;42.140;24.762;2023-06-04T06:35:35;10.80;;;6.38;;
73869;SDS011;64924;42.140;24.762;2023-06-04T06:38:01;11.82;;;7.13;;
73869;SDS011;64924;42.140;24.762;2023-06-04T06:40:26;13.93;;;6.38;;
73869;SDS011;64924;42.140;24.762;2023-06-04T06:42:52;11.88;;;7.82;;
73869;SDS011;64924;42.140;24.762;2023-06-04T06:45:18;12.32;;;6.35;;
73869;SDS011;64924;42.140;24.762;2023-06-04T06:47:44;10.88;;;6.25;;
73869;SDS011;64924;42.140;24.762;2023-06-04T06:50:10;12.48;;;7.50;;
73869;SDS011;64924;42.140;24.762;2023-06-04T06:52:36;10.00;;;7.70;;
73869;SDS011;64924;42.140;24.762;2023-06-04T06:55:03;10.27;;;7.22;;
73869;SDS011;64924;42.140;24.762;2023-06-04T06:57:29;11.85;;;6.82;;
73869;SDS011;64924;42.140;24.762;2023-06-04T06:59:55;11.05;;;6.82;;
73869;SDS011;64924;42.140;24.762;2023-06-04T07:02:21;11.35;;;8.65;;
73869;SDS011;64924;42.140;24.762;2023-06-04T07:04:46;13.68;;;9.18;;
73869;SDS011;64924;42.140;24.762;2023-06-04T07:07:12;13.82;;;9.15;;
73869;SDS011;64924;42.140;24.762;2023-06-04T07:09:38;11.15;;;8.95;;
73869;SDS011;64924;42.140;24.762;2023-06-04T07:12:03;14.95;;;8.50;;
73869;SDS011;64924;42.140;24.762;2023-06-04T07:14:29;11.63;;;8.65;;
73869;SDS011;64924;42.140;24.762;2023-06-04T07:16:54;13.13;;;8.95;;
73869;SDS011;64924;42.140;24.762;2023-06-04T07:19:20;10.77;;;7.93;;
73869;SDS011;64924;42.140;24.762;2023-06-04T07:21:45;16.35;;;7.18;;
73869;SDS011;64924;42.140;24.762;2023-06-04T07:24:11;10.70;;;8.35;;
73869;SDS011;64924;42.140;24.762;2023-06-04T07:26:36;11.15;;;6.50;;
73869;SDS011;64924;42.140;24.762;2023-06-04T07:29:02;8.63;;;6.78;;
73869;SDS011;64924;42.140;24.762;2023-06-04T07:31:27;8.57;;;6.53;;
73869;SDS011;64924;42.140;24.762;2023-06-04T07:33:53;8.40;;;6.03;;
73869;SDS011;64924;42.140;24.762;2023-06-04T07:36:18;9.15;;;6.60;;
73869;SDS011;64924;42.140;24.762;2023-06-04T07:38:45;10.88;;;6.82;;
73869;SDS011;64924;42.140;24.762;2023-06-04T07:41:11;12.85;;;6.50;;
73869;SDS011;64924;42.140;24.762;2023-06-04T07:43:36;9.07;;;6.60;;
73869;SDS011;64924;42.140;24.762;2023-06-04T07:46:04;10.73;;;7.35;;
73869;SDS011;64924;42.140;24.762;2023-06-04T07:48:30;12.48;;;7.45;;
73869;SDS011;64924;42.140;24.762;2023-06-04T07:50:57;9.70;;;7.30;;
73869;SDS011;64924;42.140;24.762;2023-06-04T07:53:23;11.50;;;7.60;;
73869;SDS011;64924;42.140;24.762;2023-06-04T07:55:49;9.35;;;7.50;;
73869;SDS011;64924;42.140;24.762;2023-06-04T07:58:16;15.63;;;8.10;;
73869;SDS011;64924;42.140;24.762;2023-06-04T08:00:41;11.10;;;7.60;;
73869;SDS011;64924;42.140;24.762;2023-06-04T08:03:07;11.10;;;7.50;;
73869;SDS011;64924;42.140;24.762;2023-06-04T08:05:32;11.05;;;8.23;;
73869;SDS011;64924;42.140;24.762;2023-06-04T08:07:59;12.65;;;8.38;;
73869;SDS011;64924;42.140;24.762;2023-06-04T08:10:25;12.05;;;8.55;;
73869;SDS011;64924;42.140;24.762;2023-06-04T08:12:50;11.82;;;8.00;;
73869;SDS011;64924;42.140;24.762;2023-06-04T08:15:16;11.32;;;7.78;;
73869;SDS011;64924;42.140;24.762;2023-06-04T08:17:41;10.88;;;8.07;;
73869;SDS011;64924;42.140;24.762;2023-06-04T08:20:07;12.13;;;7.88;;
73869;SDS011;64924;42.140;24.762;2023-06-04T08:22:34;10.90;;;9.23;;
73869;SDS011;64924;42.140;24.762;2023-06-04T08:24:59;11.43;;;8.45;;
73869;SDS011;64924;42.140;24.762;2023-06-04T08:27:25;21.35;;;9.07;;
73869;SDS011;64924;42.140;24.762;2023-06-04T08:29:51;9.00;;;8.02;;
73869;SDS011;64924;42.140;24.762;2023-06-04T08:32:17;11.30;;;9.00;;
73869;SDS011;64924;42.140;24.762;2023-06-04T08:34:43;9.27;;;7.57;;
73869;SDS011;64924;42.140;24.762;2023-06-04T08:37:09;11.38;;;7.28;;
73869;SDS011;64924;42.140;24.762;2023-06-04T08:39:34;9.95;;;6.53;;
73869;SDS011;64924;42.140;24.762;2023-06-04T08:42:00;9.80;;;6.38;;
73869;SDS011;64924;42.140;24.762;2023-06-04T08:44:29;10.70;;;6.88;;
73869;SDS011;64924;42.140;24.762;2023-06-04T08:46:57;10.38;;;6.50;;
73869;SDS011;64924;42.140;24.762;2023-06-04T08:49:28;7.97;;;5.78;;
73869;SDS011;64924;42.140;24.762;2023-06-04T08:51:59;11.75;;;6.80;;
73869;SDS011;64924;42.140;24.762;2023-06-04T08:54:25;10.75;;;7.47;;
73869;SDS011;64924;42.140;24.762;2023-06-04T08:56:51;8.35;;;6.85;;
73869;SDS011;64924;42.140;24.762;2023-06-04T08:59:17;9.60;;;8.38;;
73869;SDS011;64924;42.140;24.762;2023-06-04T09:01:43;11.05;;;7.63;;
73869;SDS011;64924;42.140;24.762;2023-06-04T09:04:10;11.23;;;7.70;;
73869;SDS011;64924;42.140;24.762;2023-06-04T09:06:36;13.85;;;9.00;;
73869;SDS011;64924;42.140;24.762;2023-06-04T09:09:03;9.15;;;7.55;;
73869;SDS011;64924;42.140;24.762;2023-06-04T09:11:55;9.85;;;7.53;;
73869;SDS011;64924;42.140;24.762;2023-06-04T09:14:22;10.05;;;6.25;;
73869;SDS011;64924;42.140;24.762;2023-06-04T09:19:16;11.50;;;6.53;;
73869;SDS011;64924;42.140;24.762;2023-06-04T09:21:47;12.18;;;6.90;;
73869;SDS011;64924;42.140;24.762;2023-06-04T09:24:17;10.15;;;7.28;;
73869;SDS011;64924;42.140;24.762;2023-06-04T09:26:44;8.07;;;6.20;;
73869;SDS011;64924;42.140;24.762;2023-06-04T09:29:10;8.00;;;6.53;;
73869;SDS011;64924;42.140;24.762;2023-06-04T09:31:35;8.85;;;6.95;;
73869;SDS011;64924;42.140;24.762;2023-06-04T09:34:05;7.20;;;6.22;;
73869;SDS011;64924;42.140;24.762;2023-06-04T09:36:35;7.95;;;6.22;;
73869;SDS011;64924;42.140;24.762;2023-06-04T09:39:04;11.93;;;6.15;;
73869;SDS011;64924;42.140;24.762;2023-06-04T09:41:40;9.65;;;7.38;;
73869;SDS011;64924;42.140;24.762;2023-06-04T09:44:06;8.13;;;6.28;;
73869;SDS011;64924;42.140;24.762;2023-06-04T09:46:35;8.95;;;5.30;;
73869;SDS011;64924;42.140;24.762;2023-06-04T09:49:02;6.07;;;5.47;;
73869;SDS011;64924;42.140;24.762;2023-06-04T09:51:29;11.50;;;6.10;;
73869;SDS011;64924;42.140;24.762;2023-06-04T09:53:59;7.70;;;5.50;;
73869;SDS011;64924;42.140;24.762;2023-06-04T09:56:27;8.00;;;5.65;;
73869;SDS011;64924;42.140;24.762;2023-06-04T09:58:57;8.32;;;5.72;;
73869;SDS011;64924;42.140;24.762;2023-06-04T10:01:26;7.13;;;5.68;;
73869;SDS011;64924;42.140;24.762;2023-06-04T10:03:54;6.68;;;5.40;;
73869;SDS011;64924;42.140;24.762;2023-06-04T10:06:21;7.80;;;4.70;;
73869;SDS011;64924;42.140;24.762;2023-06-04T10:08:48;8.45;;;5.15;;
73869;SDS011;64924;42.140;24.762;2023-06-04T10:11:24;10.88;;;5.28;;
73869;SDS011;64924;42.140;24.762;2023-06-04T10:13:57;12.30;;;5.95;;
73869;SDS011;64924;42.140;24.762;2023-06-04T10:16:27;10.70;;;6.05;;
73869;SDS011;64924;42.140;24.762;2023-06-04T10:18:55;10.55;;;5.47;;
73869;SDS011;64924;42.140;24.762;2023-06-04T10:21:22;8.98;;;5.25;;
73869;SDS011;64924;42.140;24.762;2023-06-04T10:23:49;8.10;;;4.63;;
73869;SDS011;64924;42.140;24.762;2023-06-04T10:26:15;6.80;;;4.53;;
73869;SDS011;64924;42.140;24.762;2023-06-04T10:28:41;5.97;;;4.28;;
73869;SDS011;64924;42.140;24.762;2023-06-04T10:31:11;5.93;;;3.85;;
73869;SDS011;64924;42.140;24.762;2023-06-04T10:33:37;5.40;;;3.38;;
73869;SDS011;64924;42.140;24.762;2023-06-04T10:36:17;8.27;;;4.20;;
73869;SDS011;64924;42.140;24.762;2023-06-04T10:38:50;7.15;;;5.00;;
73869;SDS011;64924;42.140;24.762;2023-06-04T10:41:17;11.35;;;3.55;;
73869;SDS011;64924;42.140;24.762;2023-06-04T10:43:50;6.00;;;3.92;;
73869;SDS011;64924;42.140;24.762;2023-06-04T10:46:17;9.15;;;3.90;;
73869;SDS011;64924;42.140;24.762;2023-06-04T10:48:50;6.03;;;3.80;;
73869;SDS011;64924;42.140;24.762;2023-06-04T10:51:30;4.57;;;3.47;;
73869;SDS011;64924;42.140;24.762;2023-06-04T10:56:26;8.55;;;5.72;;
73869;SDS011;64924;42.140;24.762;2023-06-04T10:58:53;13.07;;;7.78;;
73869;SDS011;64924;42.140;24.762;2023-06-04T11:01:23;10.20;;;8.80;;
73869;SDS011;64924;42.140;24.762;2023-06-04T11:03:50;9.18;;;6.97;;
73869;SDS011;64924;42.140;24.762;2023-06-04T11:06:15;7.70;;;6.57;;
73869;SDS011;64924;42.140;24.762;2023-06-04T11:08:42;8.20;;;6.80;;
73869;SDS011;64924;42.140;24.762;2023-06-04T11:11:14;8.45;;;7.10;;
73869;SDS011;64924;42.140;24.762;2023-06-04T11:13:41;11.52;;;7.00;;
73869;SDS011;64924;42.140;24.762;2023-06-04T11:16:18;6.90;;;5.07;;
73869;SDS011;64924;42.140;24.762;2023-06-04T11:18:57;7.43;;;5.28;;
73869;SDS011;64924;42.140;24.762;2023-06-04T11:21:24;8.60;;;5.82;;
73869;SDS011;64924;42.140;24.762;2023-06-04T11:23:54;8.55;;;6.55;;
73869;SDS011;64924;42.140;24.762;2023-06-04T11:26:30;8.50;;;6.38;;
73869;SDS011;64924;42.140;24.762;2023-06-04T11:28:56;12.52;;;7.72;;
73869;SDS011;64924;42.140;24.762;2023-06-04T11:31:21;11.38;;;7.63;;
73869;SDS011;64924;42.140;24.762;2023-06-04T11:33:47;6.82;;;5.07;;
73869;SDS011;64924;42.140;24.762;2023-06-04T11:36:23;9.55;;;7.15;;
73869;SDS011;64924;42.140;24.762;2023-06-04T11:38:58;18.35;;;6.35;;
73869;SDS011;64924;42.140;24.762;2023-06-04T11:41:31;8.13;;;5.88;;
73869;SDS011;64924;42.140;24.762;2023-06-04T11:44:01;12.52;;;6.70;;
73869;SDS011;64924;42.140;24.762;2023-06-04T11:46:33;7.78;;;5.72;;
73869;SDS011;64924;42.140;24.762;2023-06-04T11:49:00;7.75;;;6.95;;
73869;SDS011;64924;42.140;24.762;2023-06-04T11:51:27;7.53;;;5.43;;
73869;SDS011;64924;42.140;24.762;2023-06-04T11:53:54;6.35;;;5.22;;
73869;SDS011;64924;42.140;24.762;2023-06-04T11:56:20;10.35;;;6.22;;
73869;SDS011;64924;42.140;24.762;2023-06-04T11:58:46;8.35;;;6.38;;
73869;SDS011;64924;42.140;24.762;2023-06-04T12:01:12;8.48;;;5.70;;
73869;SDS011;64924;42.140;24.762;2023-06-04T12:03:41;14.35;;;6.20;;
73869;SDS011;64924;42.140;24.762;2023-06-04T12:08:50;8.02;;;4.97;;
73869;SDS011;64924;42.140;24.762;2023-06-04T12:11:24;11.85;;;5.30;;
73869;SDS011;64924;42.140;24.762;2023-06-04T12:13:53;9.43;;;6.07;;
73869;SDS011;64924;42.140;24.762;2023-06-04T12:16:23;8.57;;;5.10;;
73869;SDS011;64924;42.140;24.762;2023-06-04T12:18:49;7.40;;;5.90;;
73869;SDS011;64924;42.140;24.762;2023-06-04T12:21:22;10.10;;;6.00;;
73869;SDS011;64924;42.140;24.762;2023-06-04T12:24:07;9.88;;;5.78;;
73869;SDS011;64924;42.140;24.762;2023-06-04T12:26:36;9.25;;;5.80;;
73869;SDS011;64924;42.140;24.762;2023-06-04T12:29:12;6.78;;;5.30;;
73869;SDS011;64924;42.140;24.762;2023-06-04T12:31:43;9.30;;;5.82;;
73869;SDS011;64924;42.140;24.762;2023-06-04T12:34:10;7.63;;;5.10;;
73869;SDS011;64924;42.140;24.762;2023-06-04T12:36:37;9.68;;;6.13;;
73869;SDS011;64924;42.140;24.762;2023-06-04T12:39:03;9.10;;;6.00;;
73869;SDS011;64924;42.140;24.762;2023-06-04T12:41:30;7.82;;;6.10;;
73869;SDS011;64924;42.140;24.762;2023-06-04T12:43:56;9.48;;;5.43;;
73869;SDS011;64924;42.140;24.762;2023-06-04T12:46:23;6.22;;;5.18;;
73869;SDS011;64924;42.140;24.762;2023-06-04T12:48:52;9.13;;;5.38;;
73869;SDS011;64924;42.140;24.762;2023-06-04T12:51:19;6.80;;;5.07;;
73869;SDS011;64924;42.140;24.762;2023-06-04T12:53:46;9.73;;;5.90;;
73869;SDS011;64924;42.140;24.762;2023-06-04T12:56:12;7.97;;;6.13;;
73869;SDS011;64924;42.140;24.762;2023-06-04T12:58:37;8.60;;;6.72;;
73869;SDS011;64924;42.140;24.762;2023-06-04T13:01:03;7.43;;;6.25;;
73869;SDS011;64924;42.140;24.762;2023-06-04T13:03:32;8.07;;;6.35;;
73869;SDS011;64924;42.140;24.762;2023-06-04T13:05:58;5.78;;;4.93;;
73869;SDS011;64924;42.140;24.762;2023-06-04T13:08:24;11.52;;;6.47;;
73869;SDS011;64924;42.140;24.762;2023-06-04T13:10:50;7.50;;;5.28;;
73869;SDS011;64924;42.140;24.762;2023-06-04T13:13:16;8.15;;;6.10;;
73869;SDS011;64924;42.140;24.762;2023-06-04T13:15:45;8.50;;;6.82;;
73869;SDS011;64924;42.140;24.762;2023-06-04T13:18:11;9.32;;;6.22;;
73869;SDS011;64924;42.140;24.762;2023-06-04T13:20:37;8.63;;;5.45;;
73869;SDS011;64924;42.140;24.762;2023-06-04T13:23:05;7.55;;;6.05;;
73869;SDS011;64924;42.140;24.762;2023-06-04T13:25:31;7.55;;;5.38;;
73869;SDS011;64924;42.140;24.762;2023-06-04T13:27:59;6.25;;;5.18;;
73869;SDS011;64924;42.140;24.762;2023-06-04T13:30:25;8.90;;;5.45;;
73869;SDS011;64924;42.140;24.762;2023-06-04T13:32:52;7.15;;;5.40;;
73869;SDS011;64924;42.140;24.762;2023-06-04T13:35:18;8.57;;;5.65;;
73869;SDS011;64924;42.140;24.762;2023-06-04T13:37:43;7.35;;;5.35;;
73869;SDS011;64924;42.140;24.762;2023-06-04T13:40:09;7.72;;;5.25;;
73869;SDS011;64924;42.140;24.762;2023-06-04T13:42:34;7.78;;;5.57;;
73869;SDS011;64924;42.140;24.762;2023-06-04T13:45:00;7.10;;;5.30;;
73869;SDS011;64924;42.140;24.762;2023-06-04T13:47:26;7.88;;;5.40;;
73869;SDS011;64924;42.140;24.762;2023-06-04T13:49:51;6.63;;;4.72;;
73869;SDS011;64924;42.140;24.762;2023-06-04T13:52:17;9.75;;;5.20;;
73869;SDS011;64924;42.140;24.762;2023-06-04T13:54:42;8.10;;;5.30;;
73869;SDS011;64924;42.140;24.762;2023-06-04T13:57:08;6.65;;;5.82;;
73869;SDS011;64924;42.140;24.762;2023-06-04T13:59:37;8.15;;;5.20;;
73869;SDS011;64924;42.140;24.762;2023-06-04T14:02:02;6.30;;;5.13;;
73869;SDS011;64924;42.140;24.762;2023-06-04T14:04:28;6.22;;;5.25;;
73869;SDS011;64924;42.140;24.762;2023-06-04T14:06:53;8.80;;;5.47;;
73869;SDS011;64924;42.140;24.762;2023-06-04T14:09:19;10.10;;;5.55;;
73869;SDS011;64924;42.140;24.762;2023-06-04T14:11:45;6.88;;;5.75;;
73869;SDS011;64924;42.140;24.762;2023-06-04T14:14:15;6.85;;;5.53;;
73869;SDS011;64924;42.140;24.762;2023-06-04T14:16:46;8.43;;;6.57;;
73869;SDS011;64924;42.140;24.762;2023-06-04T14:19:12;13.73;;;6.60;;
73869;SDS011;64924;42.140;24.762;2023-06-04T14:21:38;8.30;;;5.97;;
73869;SDS011;64924;42.140;24.762;2023-06-04T14:24:04;12.15;;;6.22;;
73869;SDS011;64924;42.140;24.762;2023-06-04T14:26:29;7.07;;;6.30;;
73869;SDS011;64924;42.140;24.762;2023-06-04T14:28:55;8.35;;;5.85;;
73869;SDS011;64924;42.140;24.762;2023-06-04T14:31:21;9.05;;;6.25;;
73869;SDS011;64924;42.140;24.762;2023-06-04T14:33:46;8.02;;;5.57;;
73869;SDS011;64924;42.140;24.762;2023-06-04T14:36:12;7.03;;;5.97;;
73869;SDS011;64924;42.140;24.762;2023-06-04T14:38:38;7.88;;;5.45;;
73869;SDS011;64924;42.140;24.762;2023-06-04T14:41:03;7.88;;;6.10;;
73869;SDS011;64924;42.140;24.762;2023-06-04T14:43:29;9.35;;;5.55;;
73869;SDS011;64924;42.140;24.762;2023-06-04T14:45:54;8.95;;;5.25;;